Time;durP1;ratioP1;P1;durP2;ratioP2;P2;SDS_P1;SDS_P2;PMS_P1;PMS_P2;Temp;Humidity;BMP_temperature;BMP_pressure;BME280_temperature;BME280_humidity;BME280_pressure;Samples;Min_cycle;Max_cycle;Signal;HPM_P1;HPM_P2
2022/06/12 00:01:01;;;;;;;3.80;2.27;;;;;;;;;;5066608;28;20215;-78
2022/06/12 00:04:05;;;;;;;3.43;3.13;;;;;;;;;;5055299;28;20203;-78
2022/06/12 00:07:10;;;;;;;3.33;3.03;;;;;;;;;;5065711;28;20172;-78
2022/06/12 00:10:14;;;;;;;3.90;3.50;;;;;;;;;;5068018;28;20175;-79
2022/06/12 00:13:24;;;;;;;3.77;3.40;;;;;;;;;;5067772;28;20635;-78
2022/06/12 00:16:30;;;;;;;5.57;3.63;;;;;;;;;;5055815;28;20650;-78
2022/06/12 00:19:34;;;;;;;5.23;3.60;;;;;;;;;;5067109;28;20195;-79
2022/06/12 00:22:39;;;;;;;4.43;3.77;;;;;;;;;;5066412;28;20214;-78
2022/06/12 00:25:43;;;;;;;4.63;3.40;;;;;;;;;;5075745;28;20216;-78
2022/06/12 00:28:48;;;;;;;6.40;3.67;;;;;;;;;;5066888;28;20172;-78
2022/06/12 00:32:03;;;;;;;4.20;3.10;;;;;;;;;;5066150;28;20219;-78
2022/06/12 00:35:08;;;;;;;3.30;3.00;;;;;;;;;;5055051;28;20184;-78
2022/06/12 00:38:12;;;;;;;4.30;3.37;;;;;;;;;;5054276;28;20203;-78
2022/06/12 00:41:16;;;;;;;4.77;3.63;;;;;;;;;;5056738;28;20226;-79
2022/06/12 00:44:27;;;;;;;7.23;3.90;;;;;;;;;;5073254;28;20190;-78
2022/06/12 00:47:31;;;;;;;6.00;3.93;;;;;;;;;;5052469;28;20176;-78
2022/06/12 00:50:39;;;;;;;4.43;3.60;;;;;;;;;;5053696;28;20184;-78
2022/06/12 00:53:48;;;;;;;4.17;3.77;;;;;;;;;;5075524;28;20180;-77
2022/06/12 00:56:54;;;;;;;3.80;3.50;;;;;;;;;;5063723;28;20203;-77
2022/06/12 01:00:11;;;;;;;4.00;3.60;;;;;;;;;;5072851;28;20187;-77
2022/06/12 01:03:17;;;;;;;3.97;3.40;;;;;;;;;;5073885;28;20682;-77
2022/06/12 01:06:33;;;;;;;4.07;3.77;;;;;;;;;;5088721;28;20542;-77
2022/06/12 01:09:43;;;;;;;7.00;3.63;;;;;;;;;;5092442;28;20191;-77
2022/06/12 01:12:54;;;;;;;4.60;3.60;;;;;;;;;;5077277;28;20199;-77
2022/06/12 01:16:04;;;;;;;4.30;3.30;;;;;;;;;;5087450;28;20203;-77
2022/06/12 01:19:11;;;;;;;4.37;3.60;;;;;;;;;;5093798;28;20167;-77
2022/06/12 01:22:30;;;;;;;3.20;2.90;;;;;;;;;;5086234;28;20218;-77
2022/06/12 01:26:00;;;;;;;3.43;3.13;;;;;;;;;;5088500;28;20192;-77
2022/06/12 01:29:39;;;;;;;3.60;3.30;;;;;;;;;;5054098;28;20190;-77
2022/06/12 01:32:52;;;;;;;3.60;2.93;;;;;;;;;;5074599;28;20227;-77
2022/06/12 01:36:17;;;;;;;4.27;3.27;;;;;;;;;;5054976;28;20188;-78
2022/06/12 01:39:30;;;;;;;3.93;3.00;;;;;;;;;;5080513;28;20179;-77
2022/06/12 01:43:12;;;;;;;5.77;3.27;;;;;;;;;;5083851;28;20219;-77
2022/06/12 01:46:19;;;;;;;3.73;3.00;;;;;;;;;;5083521;28;20174;-77
2022/06/12 01:49:43;;;;;;;4.00;2.70;;;;;;;;;;5091207;28;20199;-77
2022/06/12 01:52:47;;;;;;;4.03;3.20;;;;;;;;;;5074665;28;20184;-77
2022/06/12 01:56:21;;;;;;;3.57;3.07;;;;;;;;;;5073698;28;20183;-77
2022/06/12 01:59:38;;;;;;;2.90;2.60;;;;;;;;;;5042356;28;20183;-77
2022/06/12 02:02:55;;;;;;;3.20;2.80;;;;;;;;;;5094756;28;20222;-77
2022/06/12 02:06:15;;;;;;;3.20;2.67;;;;;;;;;;5075934;28;20196;-77
2022/06/12 02:09:25;;;;;;;3.43;3.03;;;;;;;;;;5076762;28;20531;-77
2022/06/12 02:16:04;;;;;;;3.67;2.90;;;;;;;;;;5094191;28;20195;-77
2022/06/12 02:19:13;;;;;;;2.93;2.70;;;;;;;;;;5092339;28;20183;-77
2022/06/12 02:22:24;;;;;;;3.33;2.80;;;;;;;;;;5075339;28;20218;-78
2022/06/12 02:25:33;;;;;;;3.23;2.63;;;;;;;;;;5052306;28;20639;-78
2022/06/12 02:28:43;;;;;;;4.23;2.80;;;;;;;;;;5076106;28;20176;-77
2022/06/12 02:31:53;;;;;;;3.60;2.40;;;;;;;;;;5074912;28;20215;-77
2022/06/12 02:35:04;;;;;;;3.10;2.80;;;;;;;;;;5072629;28;20192;-78
2022/06/12 02:38:30;;;;;;;3.07;2.63;;;;;;;;;;5095355;28;20207;-77
2022/06/12 02:41:44;;;;;;;4.63;2.40;;;;;;;;;;5083086;28;20670;-77
2022/06/12 02:44:53;;;;;;;3.23;2.70;;;;;;;;;;5073298;28;20195;-77
2022/06/12 02:47:58;;;;;;;6.77;3.03;;;;;;;;;;5075282;28;20180;-77
2022/06/12 02:51:08;;;;;;;5.20;3.07;;;;;;;;;;5095096;28;20218;-77
2022/06/12 02:54:30;;;;;;;3.07;2.63;;;;;;;;;;5087073;28;20673;-78
2022/06/12 02:57:52;;;;;;;3.00;2.70;;;;;;;;;;5094107;28;20202;-77
2022/06/12 03:00:59;;;;;;;4.10;2.80;;;;;;;;;;5081290;28;20230;-78
2022/06/12 03:04:11;;;;;;;3.50;2.70;;;;;;;;;;5089238;28;20206;-78
2022/06/12 03:07:16;;;;;;;3.63;3.00;;;;;;;;;;5092706;28;20626;-77
2022/06/12 03:10:25;;;;;;;3.50;3.20;;;;;;;;;;5093114;28;20194;-77
2022/06/12 03:13:32;;;;;;;3.73;2.93;;;;;;;;;;5088100;28;20182;-77
2022/06/12 03:16:40;;;;;;;3.60;2.70;;;;;;;;;;5097354;28;20175;-77
2022/06/12 03:19:54;;;;;;;4.20;3.20;;;;;;;;;;5073028;28;20175;-77
2022/06/12 03:23:26;;;;;;;3.43;2.43;;;;;;;;;;5086470;28;20199;-77
2022/06/12 03:26:57;;;;;;;4.13;2.73;;;;;;;;;;5095537;28;20518;-77
2022/06/12 03:30:32;;;;;;;2.83;2.57;;;;;;;;;;5083819;28;20179;-77
2022/06/12 03:34:19;;;;;;;4.57;3.10;;;;;;;;;;5086128;28;20186;-78
2022/06/12 03:37:38;;;;;;;5.73;3.27;;;;;;;;;;5097289;28;20206;-77
2022/06/12 03:41:00;;;;;;;3.30;2.93;;;;;;;;;;5084490;28;20226;-77
2022/06/12 03:44:25;;;;;;;4.50;3.67;;;;;;;;;;5085095;28;20179;-77
2022/06/12 03:47:51;;;;;;;5.97;3.17;;;;;;;;;;5091921;28;20188;-77
2022/06/12 03:51:48;;;;;;;3.40;3.10;;;;;;;;;;5063007;28;20223;-77
2022/06/12 03:55:10;;;;;;;3.10;2.80;;;;;;;;;;5006142;28;20193;-77
2022/06/12 03:58:20;;;;;;;4.10;2.80;;;;;;;;;;5023026;28;20645;-78
2022/06/12 04:01:26;;;;;;;5.13;3.10;;;;;;;;;;5065999;28;20223;-77
2022/06/12 04:04:33;;;;;;;5.73;3.30;;;;;;;;;;5087132;28;20202;-77
2022/06/12 04:07:44;;;;;;;4.27;3.10;;;;;;;;;;5097469;28;20614;-77
2022/06/12 04:10:49;;;;;;;4.80;3.27;;;;;;;;;;5096263;28;20210;-78
2022/06/12 04:13:56;;;;;;;3.23;2.93;;;;;;;;;;5069178;28;20183;-78
2022/06/12 04:17:04;;;;;;;4.67;3.10;;;;;;;;;;5082118;28;20171;-77
2022/06/12 04:20:21;;;;;;;5.33;3.20;;;;;;;;;;5064881;28;20187;-77
2022/06/12 04:23:43;;;;;;;6.57;3.30;;;;;;;;;;5065500;28;20195;-77
2022/06/12 04:26:54;;;;;;;4.53;2.93;;;;;;;;;;5096391;28;20629;-77
2022/06/12 04:30:06;;;;;;;5.13;3.37;;;;;;;;;;5083942;28;20191;-77
2022/06/12 04:33:33;;;;;;;4.63;3.30;;;;;;;;;;5081621;28;20187;-77
2022/06/12 04:36:39;;;;;;;3.43;2.87;;;;;;;;;;5062829;28;20187;-77
2022/06/12 04:39:45;;;;;;;3.53;3.20;;;;;;;;;;5076369;28;20527;-77
2022/06/12 04:42:49;;;;;;;3.27;2.80;;;;;;;;;;5056021;28;20192;-78
2022/06/12 04:45:54;;;;;;;4.50;3.20;;;;;;;;;;5067337;28;20187;-77
2022/06/12 04:48:59;;;;;;;3.80;3.40;;;;;;;;;;5097047;28;20531;-77
2022/06/12 04:52:06;;;;;;;3.97;3.20;;;;;;;;;;5080195;28;20218;-77
2022/06/12 04:55:10;;;;;;;4.00;3.43;;;;;;;;;;5087773;28;20190;-77
2022/06/12 04:58:14;;;;;;;5.80;3.53;;;;;;;;;;5095961;28;20207;-77
2022/06/12 05:01:20;;;;;;;4.30;3.83;;;;;;;;;;5069715;28;20226;-77
2022/06/12 05:04:25;;;;;;;3.80;3.50;;;;;;;;;;5080100;28;20214;-77
2022/06/12 05:07:29;;;;;;;5.23;3.77;;;;;;;;;;5092945;28;20194;-77
2022/06/12 05:10:34;;;;;;;3.83;3.47;;;;;;;;;;5081744;28;20187;-77
2022/06/12 05:13:39;;;;;;;3.77;3.47;;;;;;;;;;5077726;28;20207;-77
2022/06/12 05:17:07;;;;;;;4.97;4.10;;;;;;;;;;5083625;28;20199;-77
2022/06/12 05:20:19;;;;;;;6.37;3.80;;;;;;;;;;5062907;28;20505;-76
2022/06/12 05:23:24;;;;;;;6.67;3.53;;;;;;;;;;5057825;28;20195;-77
2022/06/12 05:26:30;;;;;;;3.30;3.00;;;;;;;;;;5062131;28;20183;-76
2022/06/12 05:29:37;;;;;;;4.30;3.27;;;;;;;;;;5050744;28;20176;-77
2022/06/12 05:32:42;;;;;;;5.20;3.77;;;;;;;;;;5081170;28;20211;-76
2022/06/12 05:35:46;;;;;;;3.67;3.37;;;;;;;;;;5067144;28;20183;-77
2022/06/12 05:38:52;;;;;;;5.50;4.00;;;;;;;;;;5073501;28;20207;-77
2022/06/12 05:41:56;;;;;;;5.17;3.23;;;;;;;;;;5065516;28;20566;-77
2022/06/12 05:45:01;;;;;;;3.27;2.93;;;;;;;;;;5075920;28;20199;-77
2022/06/12 05:48:12;;;;;;;3.10;2.80;;;;;;;;;;5083222;28;20198;-77
2022/06/12 05:51:18;;;;;;;4.73;2.53;;;;;;;;;;5099256;28;20700;-77
2022/06/12 05:54:22;;;;;;;3.60;2.77;;;;;;;;;;5079354;28;20187;-75
2022/06/12 05:57:26;;;;;;;4.60;2.67;;;;;;;;;;5061184;28;20183;-77
2022/06/12 06:00:31;;;;;;;5.17;2.83;;;;;;;;;;5076951;28;20528;-77
2022/06/12 06:03:36;;;;;;;2.67;2.37;;;;;;;;;;5073364;28;20212;-77
2022/06/12 06:06:45;;;;;;;2.60;2.40;;;;;;;;;;5074891;28;20191;-78
2022/06/12 06:09:49;;;;;;;3.87;2.30;;;;;;;;;;5082715;28;20559;-78
2022/06/12 06:12:54;;;;;;;2.73;2.53;;;;;;;;;;5084541;28;20187;-77
2022/06/12 06:15:59;;;;;;;5.73;2.47;;;;;;;;;;5095359;28;20641;-77
2022/06/12 06:19:03;;;;;;;2.60;2.40;;;;;;;;;;5071079;28;20218;-77
2022/06/12 06:22:07;;;;;;;3.33;2.40;;;;;;;;;;5093351;28;20210;-77
2022/06/12 06:25:12;;;;;;;4.03;2.57;;;;;;;;;;5070691;28;20198;-77
2022/06/12 06:28:17;;;;;;;2.80;2.57;;;;;;;;;;5080931;28;20182;-77
2022/06/12 06:31:21;;;;;;;3.70;2.37;;;;;;;;;;5073727;28;20219;-77
2022/06/12 06:34:25;;;;;;;2.47;2.27;;;;;;;;;;5083939;28;20539;-77
2022/06/12 06:37:29;;;;;;;4.47;2.27;;;;;;;;;;5076025;28;20198;-77
2022/06/12 06:40:34;;;;;;;2.80;2.30;;;;;;;;;;5064384;28;20666;-77
2022/06/12 06:47:01;;;;;;;2.53;2.33;;;;;;;;;;5084027;28;20199;-77
2022/06/12 06:50:07;;;;;;;7.20;2.47;;;;;;;;;;5096435;28;20182;-76
2022/06/12 06:53:12;;;;;;;3.83;2.40;;;;;;;;;;5066871;28;20176;-76
2022/06/12 06:56:16;;;;;;;3.93;2.60;;;;;;;;;;5090406;28;20186;-78
2022/06/12 06:59:21;;;;;;;2.90;2.50;;;;;;;;;;5097022;28;20203;-79
2022/06/12 07:02:25;;;;;;;3.67;2.60;;;;;;;;;;5082604;28;20704;-79
2022/06/12 07:05:30;;;;;;;3.20;2.40;;;;;;;;;;5083698;28;20550;-80
2022/06/12 07:08:34;;;;;;;2.87;2.10;;;;;;;;;;5096168;28;20174;-79
2022/06/12 07:11:38;;;;;;;2.20;2.00;;;;;;;;;;5073758;28;20565;-80
2022/06/12 07:14:42;;;;;;;3.80;2.30;;;;;;;;;;5085670;28;20183;-79
2022/06/12 07:17:47;;;;;;;4.17;2.80;;;;;;;;;;5072936;28;20179;-79
2022/06/12 07:20:55;;;;;;;3.23;2.40;;;;;;;;;;5076183;28;20203;-79
2022/06/12 07:23:59;;;;;;;2.50;2.20;;;;;;;;;;5064955;28;20200;-79
2022/06/12 07:27:04;;;;;;;2.80;2.07;;;;;;;;;;5067133;28;20179;-78
2022/06/12 07:30:11;;;;;;;3.07;1.90;;;;;;;;;;5080379;28;20188;-79
2022/06/12 07:33:16;;;;;;;3.93;2.20;;;;;;;;;;5079471;28;20175;-78
2022/06/12 07:36:21;;;;;;;2.73;2.33;;;;;;;;;;5077114;28;20195;-79
2022/06/12 07:39:29;;;;;;;2.47;2.10;;;;;;;;;;5068452;28;20206;-78
2022/06/12 07:42:34;;;;;;;3.03;2.07;;;;;;;;;;5077905;28;20695;-78
2022/06/12 07:45:40;;;;;;;3.27;1.77;;;;;;;;;;5077707;28;20183;-78
2022/06/12 07:48:46;;;;;;;2.13;1.90;;;;;;;;;;5082516;28;20178;-78
2022/06/12 07:51:52;;;;;;;2.58;1.60;;;;;;;;;;5096344;28;20214;-79
2022/06/12 07:54:56;;;;;;;5.72;1.80;;;;;;;;;;5095077;28;20189;-77
2022/06/12 07:58:01;;;;;;;3.67;1.63;;;;;;;;;;5095999;28;20539;-78
2022/06/12 08:01:08;;;;;;;5.97;1.70;;;;;;;;;;5102084;28;20236;-78
2022/06/12 08:04:13;;;;;;;2.60;1.70;;;;;;;;;;5096065;28;20216;-78
2022/06/12 08:07:17;;;;;;;2.55;1.60;;;;;;;;;;5094247;28;20525;-78
2022/06/12 08:10:22;;;;;;;1.65;1.55;;;;;;;;;;5087000;28;20642;-78
2022/06/12 08:13:27;;;;;;;2.28;1.60;;;;;;;;;;5087139;28;20186;-78
2022/06/12 08:16:33;;;;;;;3.17;1.40;;;;;;;;;;5092766;28;20543;-78
2022/06/12 08:23:26;;;;;;;6.32;1.50;;;;;;;;;;5085950;28;20187;-78
2022/06/12 08:26:33;;;;;;;3.80;1.70;;;;;;;;;;5085372;28;20187;-78
2022/06/12 08:29:37;;;;;;;4.07;1.60;;;;;;;;;;5096903;28;20195;-78
2022/06/12 08:32:45;;;;;;;1.40;1.27;;;;;;;;;;5087030;28;20222;-78
2022/06/12 08:35:50;;;;;;;1.90;1.50;;;;;;;;;;5067661;28;20199;-78
2022/06/12 08:38:54;;;;;;;2.00;1.60;;;;;;;;;;5077371;28;20216;-79
2022/06/12 08:42:19;;;;;;;1.65;1.52;;;;;;;;;;5078321;28;20693;-78
2022/06/12 08:45:28;;;;;;;2.03;1.70;;;;;;;;;;5080316;28;20192;-78
2022/06/12 08:48:57;;;;;;;2.40;1.42;;;;;;;;;;5087236;28;20187;-78
2022/06/12 08:52:24;;;;;;;1.35;1.25;;;;;;;;;;5068607;28;20702;-78
2022/06/12 08:55:57;;;;;;;3.00;1.52;;;;;;;;;;5069977;28;20183;-78
2022/06/12 08:59:13;;;;;;;2.70;1.60;;;;;;;;;;5085305;28;20199;-78
2022/06/12 09:02:28;;;;;;;1.58;1.48;;;;;;;;;;5079670;28;20228;-78
2022/06/12 09:05:51;;;;;;;4.00;1.42;;;;;;;;;;5078280;28;20180;-79
2022/06/12 09:09:07;;;;;;;3.17;1.60;;;;;;;;;;5078581;28;20188;-78
2022/06/12 09:12:21;;;;;;;1.83;1.50;;;;;;;;;;5058967;28;20216;-79
2022/06/12 09:15:36;;;;;;;3.75;1.30;;;;;;;;;;5080285;28;20187;-80
2022/06/12 09:18:46;;;;;;;1.77;1.30;;;;;;;;;;5086421;28;20187;-80
2022/06/12 09:22:15;;;;;;;3.65;1.60;;;;;;;;;;5080222;28;20262;-79
2022/06/12 09:25:38;;;;;;;3.30;1.45;;;;;;;;;;5098560;28;20666;-78
2022/06/12 09:28:45;;;;;;;4.40;1.38;;;;;;;;;;5093910;28;20184;-79
2022/06/12 09:31:50;;;;;;;1.90;1.33;;;;;;;;;;5073413;28;20218;-79
2022/06/12 09:35:21;;;;;;;2.17;1.25;;;;;;;;;;5093757;28;20183;-79
2022/06/12 09:38:37;;;;;;;3.13;1.17;;;;;;;;;;5075451;28;20199;-78
2022/06/12 09:42:03;;;;;;;3.15;1.30;;;;;;;;;;5088939;28;20211;-78
2022/06/12 09:45:24;;;;;;;4.53;1.33;;;;;;;;;;5077590;28;20196;-78
2022/06/12 09:48:58;;;;;;;2.50;1.52;;;;;;;;;;5085643;28;20187;-78
2022/06/12 09:52:18;;;;;;;4.82;1.40;;;;;;;;;;5084330;28;20222;-79
2022/06/12 09:55:30;;;;;;;1.73;1.38;;;;;;;;;;5083854;28;20200;-78
2022/06/12 09:58:41;;;;;;;3.65;1.50;;;;;;;;;;5080382;28;20547;-78
2022/06/12 10:01:49;;;;;;;1.83;1.40;;;;;;;;;;5082159;28;20215;-79
2022/06/12 10:05:15;;;;;;;1.40;1.10;;;;;;;;;;5083823;28;20667;-79
2022/06/12 10:08:23;;;;;;;1.52;1.33;;;;;;;;;;5094805;28;20200;-80
2022/06/12 10:11:36;;;;;;;1.67;1.23;;;;;;;;;;5085746;28;20219;-80
2022/06/12 10:14:48;;;;;;;4.57;1.50;;;;;;;;;;5085442;28;20191;-79
2022/06/12 10:18:14;;;;;;;3.78;1.48;;;;;;;;;;5096641;28;20199;-79
2022/06/12 10:21:21;;;;;;;2.30;1.23;;;;;;;;;;5083452;28;20226;-80
2022/06/12 10:24:25;;;;;;;2.03;1.40;;;;;;;;;;5100839;28;20198;-80
2022/06/12 10:27:55;;;;;;;1.60;1.25;;;;;;;;;;5059296;28;20198;-78
2022/06/12 10:31:05;;;;;;;1.52;1.23;;;;;;;;;;5089410;28;20210;-79
2022/06/12 10:34:22;;;;;;;2.65;1.35;;;;;;;;;;5078184;28;20200;-79
2022/06/12 10:37:28;;;;;;;1.30;1.20;;;;;;;;;;5094880;28;20203;-78
2022/06/12 10:40:33;;;;;;;2.78;1.30;;;;;;;;;;5103435;28;20203;-78
2022/06/12 10:43:43;;;;;;;4.03;1.58;;;;;;;;;;5079699;28;20180;-79
2022/06/12 10:46:48;;;;;;;1.85;1.30;;;;;;;;;;5080264;28;20180;-79
2022/06/12 10:50:19;;;;;;;3.45;1.40;;;;;;;;;;5100545;28;20171;-78
2022/06/12 10:53:26;;;;;;;2.05;1.35;;;;;;;;;;5086007;28;20192;-78
2022/06/12 10:57:00;;;;;;;1.98;1.40;;;;;;;;;;5069312;28;20199;-79
2022/06/12 11:00:19;;;;;;;1.60;1.50;;;;;;;;;;5070186;28;20208;-78
2022/06/12 11:04:01;;;;;;;3.00;1.27;;;;;;;;;;5094751;28;20207;-78
2022/06/12 11:07:13;;;;;;;2.10;1.42;;;;;;;;;;5067380;28;20196;-79
2022/06/12 11:10:32;;;;;;;2.22;1.42;;;;;;;;;;5070588;28;20180;-80
2022/06/12 11:13:53;;;;;;;1.58;1.40;;;;;;;;;;5082449;28;20180;-79
2022/06/12 11:17:22;;;;;;;2.95;1.20;;;;;;;;;;5087743;28;20187;-79
2022/06/12 11:21:03;;;;;;;2.60;1.45;;;;;;;;;;5081349;28;20211;-79
2022/06/12 11:24:16;;;;;;;1.70;1.45;;;;;;;;;;5069981;28;20180;-79
2022/06/12 11:27:38;;;;;;;2.22;1.48;;;;;;;;;;5077804;28;20190;-80
2022/06/12 11:31:05;;;;;;;2.30;1.17;;;;;;;;;;5101840;28;20179;-79
2022/06/12 11:34:42;;;;;;;2.33;1.30;;;;;;;;;;5074517;28;20191;-79
2022/06/12 11:38:06;;;;;;;1.92;1.38;;;;;;;;;;5101309;28;20195;-78
2022/06/12 11:41:29;;;;;;;2.67;1.30;;;;;;;;;;5099887;28;20572;-78
2022/06/12 11:44:58;;;;;;;2.65;1.17;;;;;;;;;;5099651;28;20642;-79
2022/06/12 11:48:13;;;;;;;5.75;1.52;;;;;;;;;;5076772;28;20191;-79
2022/06/12 11:51:31;;;;;;;2.78;1.30;;;;;;;;;;5099699;28;20681;-79
2022/06/12 11:54:54;;;;;;;3.72;1.70;;;;;;;;;;5100063;28;20526;-77
2022/06/12 11:58:18;;;;;;;2.05;1.15;;;;;;;;;;5085459;28;20534;-78
2022/06/12 12:01:35;;;;;;;4.85;1.48;;;;;;;;;;5084117;28;20230;-78
2022/06/12 12:04:43;;;;;;;1.67;1.27;;;;;;;;;;5090026;28;20211;-79
2022/06/12 12:08:23;;;;;;;2.08;1.33;;;;;;;;;;5095747;28;20203;-79
2022/06/12 12:11:33;;;;;;;1.55;1.38;;;;;;;;;;5103511;28;20215;-80
2022/06/12 12:14:40;;;;;;;2.75;1.50;;;;;;;;;;5090759;28;20176;-79
2022/06/12 12:17:47;;;;;;;3.65;1.30;;;;;;;;;;5090357;28;20179;-79
2022/06/12 12:20:53;;;;;;;2.85;1.27;;;;;;;;;;5101723;28;20222;-79
2022/06/12 12:23:59;;;;;;;2.92;1.50;;;;;;;;;;5103002;28;20175;-79
2022/06/12 12:27:09;;;;;;;3.65;1.50;;;;;;;;;;5091167;28;20180;-79
2022/06/12 12:30:22;;;;;;;1.42;1.33;;;;;;;;;;5102109;28;20184;-79
2022/06/12 12:33:26;;;;;;;3.63;1.30;;;;;;;;;;5101594;28;20611;-79
2022/06/12 12:43:20;;;;;;;1.67;1.10;;;;;;;;;;5102027;28;20179;-79
2022/06/12 12:46:44;;;;;;;1.52;1.05;;;;;;;;;;5102377;28;20550;-79
2022/06/12 12:50:20;;;;;;;3.28;1.30;;;;;;;;;;5100633;28;20187;-79
2022/06/12 12:53:26;;;;;;;1.27;1.10;;;;;;;;;;5088899;28;20627;-78
2022/06/12 12:56:33;;;;;;;2.28;1.27;;;;;;;;;;5100566;28;20194;-79
2022/06/12 12:59:40;;;;;;;3.53;1.30;;;;;;;;;;5101421;28;20199;-79
2022/06/12 13:03:07;;;;;;;3.10;1.33;;;;;;;;;;5089485;28;20566;-79
2022/06/12 13:06:24;;;;;;;2.17;1.40;;;;;;;;;;5090755;28;20187;-79
2022/06/12 13:09:50;;;;;;;2.72;1.20;;;;;;;;;;5102543;28;20180;-80
2022/06/12 13:13:05;;;;;;;1.60;1.20;;;;;;;;;;5104315;28;20180;-79
2022/06/12 13:16:47;;;;;;;1.80;1.30;;;;;;;;;;5102757;28;20179;-78
2022/06/12 13:20:34;;;;;;;1.42;1.20;;;;;;;;;;5101386;28;20195;-78
2022/06/12 13:23:47;;;;;;;3.17;1.25;;;;;;;;;;5065683;28;20645;-78
2022/06/12 13:26:52;;;;;;;1.30;1.20;;;;;;;;;;5100646;28;20187;-78
2022/06/12 13:29:58;;;;;;;1.73;1.30;;;;;;;;;;5100398;28;20172;-78
2022/06/12 13:33:24;;;;;;;2.97;1.20;;;;;;;;;;5088368;28;20179;-78
2022/06/12 13:36:41;;;;;;;1.20;1.10;;;;;;;;;;5100427;28;20626;-78
2022/06/12 13:39:48;;;;;;;3.08;1.23;;;;;;;;;;5100033;28;20175;-78
2022/06/12 13:43:10;;;;;;;2.08;1.25;;;;;;;;;;5102849;28;20511;-78
2022/06/12 13:46:32;;;;;;;1.63;1.10;;;;;;;;;;5078879;28;20179;-78
2022/06/12 13:49:44;;;;;;;2.05;1.38;;;;;;;;;;5101006;28;20179;-78
2022/06/12 13:52:58;;;;;;;3.10;1.13;;;;;;;;;;5078587;28;20217;-78
2022/06/12 13:56:03;;;;;;;1.20;1.10;;;;;;;;;;5089787;28;20638;-78
2022/06/12 13:59:34;;;;;;;1.52;1.15;;;;;;;;;;5101250;28;20195;-78
2022/06/12 14:02:41;;;;;;;1.02;0.95;;;;;;;;;;5101230;28;20207;-78
2022/06/12 14:05:50;;;;;;;2.10;1.20;;;;;;;;;;5088763;28;20171;-78
2022/06/12 14:09:07;;;;;;;4.15;1.65;;;;;;;;;;5090233;28;20211;-78
2022/06/12 14:12:13;;;;;;;3.55;1.33;;;;;;;;;;5100369;28;20227;-78
2022/06/12 14:15:44;;;;;;;2.85;1.38;;;;;;;;;;5099234;28;20202;-78
2022/06/12 14:19:07;;;;;;;1.67;1.27;;;;;;;;;;5100120;28;20187;-78
2022/06/12 14:22:17;;;;;;;3.75;1.25;;;;;;;;;;5089387;28;20682;-79
2022/06/12 14:25:28;;;;;;;1.33;1.10;;;;;;;;;;5090530;28;20195;-78
2022/06/12 14:28:35;;;;;;;2.80;1.42;;;;;;;;;;5090654;28;20180;-78
2022/06/12 14:31:40;;;;;;;1.27;1.08;;;;;;;;;;5102170;28;20219;-79
2022/06/12 14:35:06;;;;;;;3.72;1.20;;;;;;;;;;5103395;28;20175;-79
2022/06/12 14:38:19;;;;;;;3.05;1.20;;;;;;;;;;5102061;28;20172;-78
2022/06/12 14:41:27;;;;;;;1.33;1.10;;;;;;;;;;5101757;28;20210;-78
2022/06/12 14:44:32;;;;;;;1.20;1.10;;;;;;;;;;5102508;28;20183;-78
2022/06/12 14:47:36;;;;;;;1.23;1.10;;;;;;;;;;5078131;28;20175;-78
2022/06/12 14:50:41;;;;;;;1.92;1.13;;;;;;;;;;5089217;28;20227;-79
2022/06/12 14:53:46;;;;;;;2.67;1.23;;;;;;;;;;5100618;28;20183;-78
2022/06/12 14:56:50;;;;;;;1.33;1.00;;;;;;;;;;5089970;28;20187;-79
2022/06/12 14:59:57;;;;;;;2.25;1.00;;;;;;;;;;5090357;28;20196;-79
2022/06/12 15:03:01;;;;;;;1.60;1.10;;;;;;;;;;5099505;28;20199;-79
2022/06/12 15:06:05;;;;;;;2.55;1.20;;;;;;;;;;5078703;28;20183;-78
2022/06/12 15:09:10;;;;;;;3.13;1.10;;;;;;;;;;5094086;28;20191;-79
2022/06/12 15:12:18;;;;;;;3.70;1.30;;;;;;;;;;5081935;28;20219;-80
2022/06/12 15:15:24;;;;;;;2.10;1.17;;;;;;;;;;5086280;28;20176;-79
2022/06/12 15:18:29;;;;;;;2.03;1.10;;;;;;;;;;5091697;28;20186;-78
2022/06/12 15:21:40;;;;;;;2.72;1.13;;;;;;;;;;5088731;28;20211;-79
2022/06/12 15:24:46;;;;;;;1.30;1.20;;;;;;;;;;5084967;28;20180;-78
2022/06/12 15:31:17;;;;;;;2.08;1.10;;;;;;;;;;5092254;28;20227;-78
2022/06/12 15:34:23;;;;;;;1.88;1.05;;;;;;;;;;5085256;28;20172;-79
2022/06/12 15:37:27;;;;;;;2.78;1.13;;;;;;;;;;5072914;28;20167;-79
2022/06/12 15:40:31;;;;;;;2.38;1.30;;;;;;;;;;5085069;28;20627;-79
2022/06/12 15:43:37;;;;;;;1.42;1.10;;;;;;;;;;5086464;28;20176;-79
2022/06/12 15:46:41;;;;;;;3.03;1.20;;;;;;;;;;5088724;28;20176;-81
2022/06/12 15:49:46;;;;;;;1.90;1.48;;;;;;;;;;5075228;28;20183;-79
2022/06/12 15:52:50;;;;;;;1.88;1.15;;;;;;;;;;5085625;28;20216;-79
2022/06/12 15:55:55;;;;;;;1.77;1.23;;;;;;;;;;5074099;28;20639;-79
2022/06/12 15:58:59;;;;;;;2.95;1.48;;;;;;;;;;5084368;28;20516;-78
2022/06/12 16:02:14;;;;;;;2.45;1.50;;;;;;;;;;5085261;28;20211;-78
2022/06/12 16:05:21;;;;;;;2.42;1.33;;;;;;;;;;5071114;28;20199;-79
2022/06/12 16:08:25;;;;;;;2.85;1.30;;;;;;;;;;5079473;28;20196;-79
2022/06/12 16:11:29;;;;;;;2.53;1.27;;;;;;;;;;5083152;28;20215;-79
2022/06/12 16:14:33;;;;;;;2.42;1.15;;;;;;;;;;5094925;28;20175;-79
2022/06/12 16:17:38;;;;;;;1.70;1.40;;;;;;;;;;5073868;28;20183;-79
2022/06/12 16:20:42;;;;;;;4.13;1.60;;;;;;;;;;5098849;28;20195;-79
2022/06/12 16:23:47;;;;;;;4.72;1.65;;;;;;;;;;5083733;28;20187;-78
2022/06/12 16:26:51;;;;;;;4.30;1.35;;;;;;;;;;5083645;28;20195;-80
2022/06/12 16:29:55;;;;;;;2.08;1.20;;;;;;;;;;5079847;28;20187;-78
2022/06/12 16:33:00;;;;;;;3.20;1.40;;;;;;;;;;5083371;28;20218;-79
2022/06/12 16:36:06;;;;;;;3.53;1.50;;;;;;;;;;5096614;28;20205;-79
2022/06/12 16:39:11;;;;;;;1.95;1.20;;;;;;;;;;5090700;28;20202;-78
2022/06/12 16:42:16;;;;;;;3.50;1.50;;;;;;;;;;5103922;28;20221;-78
2022/06/12 16:45:20;;;;;;;2.85;1.30;;;;;;;;;;5091578;28;20189;-78
2022/06/12 16:48:25;;;;;;;3.65;1.60;;;;;;;;;;5083109;28;20179;-79
2022/06/12 16:51:29;;;;;;;2.92;1.55;;;;;;;;;;5095270;28;20221;-79
2022/06/12 16:54:37;;;;;;;5.82;1.90;;;;;;;;;;5098046;28;20182;-77
2022/06/12 16:57:41;;;;;;;4.53;1.58;;;;;;;;;;5095964;28;20179;-77
2022/06/12 17:00:45;;;;;;;1.85;1.30;;;;;;;;;;5084691;28;20217;-77
2022/06/12 17:03:49;;;;;;;11.23;2.08;;;;;;;;;;5094853;28;20539;-77
2022/06/12 17:06:54;;;;;;;9.50;2.53;;;;;;;;;;5089280;28;20539;-77
2022/06/12 17:09:58;;;;;;;1.83;1.40;;;;;;;;;;5077400;28;20495;-77
2022/06/12 17:13:03;;;;;;;3.83;1.40;;;;;;;;;;5065165;28;20209;-77
2022/06/12 17:16:07;;;;;;;4.53;1.33;;;;;;;;;;5078020;28;20522;-77
2022/06/12 17:22:35;;;;;;;3.13;1.40;;;;;;;;;;5095514;28;20213;-78
2022/06/12 17:25:40;;;;;;;2.35;1.30;;;;;;;;;;5078474;28;20186;-77
2022/06/12 17:28:44;;;;;;;4.18;1.70;;;;;;;;;;5076765;28;20185;-77
2022/06/12 17:31:48;;;;;;;2.13;1.55;;;;;;;;;;5089026;28;20213;-77
2022/06/12 17:34:56;;;;;;;2.60;1.65;;;;;;;;;;5074106;28;20181;-77
2022/06/12 17:38:01;;;;;;;2.60;1.50;;;;;;;;;;5076339;28;20195;-77
2022/06/12 17:41:05;;;;;;;2.47;1.52;;;;;;;;;;5062256;28;20222;-76
2022/06/12 17:44:09;;;;;;;1.95;1.50;;;;;;;;;;5061386;28;20185;-76
2022/06/12 17:47:13;;;;;;;2.70;1.55;;;;;;;;;;5061232;28;20185;-76
2022/06/12 17:50:17;;;;;;;5.18;1.63;;;;;;;;;;5091913;28;20192;-76
2022/06/12 17:53:21;;;;;;;2.67;1.50;;;;;;;;;;5081427;28;20207;-76
2022/06/12 17:56:26;;;;;;;2.55;1.50;;;;;;;;;;5092938;28;20196;-77
2022/06/12 17:59:29;;;;;;;3.35;1.70;;;;;;;;;;5092444;28;20176;-76
2022/06/12 18:02:34;;;;;;;3.17;1.50;;;;;;;;;;5060945;28;20271;-77
2022/06/12 18:05:39;;;;;;;1.83;1.40;;;;;;;;;;5072589;28;20179;-76
2022/06/12 18:08:43;;;;;;;1.95;1.50;;;;;;;;;;5082516;28;20192;-77
2022/06/12 18:11:47;;;;;;;3.58;1.30;;;;;;;;;;5093149;28;20218;-77
2022/06/12 18:21:45;;;;;;;2.40;1.50;;;;;;;;;;5092943;28;20219;-76
2022/06/12 18:24:49;;;;;;;3.77;1.67;;;;;;;;;;5092623;28;20185;-76
2022/06/12 18:27:53;;;;;;;1.83;1.57;;;;;;;;;;5084976;28;20185;-76
2022/06/12 18:30:57;;;;;;;1.73;1.47;;;;;;;;;;5074375;28;20213;-77
2022/06/12 18:34:02;;;;;;;2.00;1.60;;;;;;;;;;5073141;28;20186;-76
2022/06/12 18:37:06;;;;;;;3.93;1.70;;;;;;;;;;5072736;28;20168;-77
2022/06/12 18:40:12;;;;;;;2.57;1.87;;;;;;;;;;5079940;28;20197;-77
2022/06/12 18:43:16;;;;;;;3.50;1.90;;;;;;;;;;5095165;28;20176;-77
2022/06/12 18:46:23;;;;;;;1.70;1.60;;;;;;;;;;5082036;28;20198;-76
2022/06/12 18:49:27;;;;;;;2.30;1.70;;;;;;;;;;5076123;28;20192;-77
2022/06/12 18:52:31;;;;;;;1.70;1.60;;;;;;;;;;5077027;28;20250;-77
2022/06/12 18:55:35;;;;;;;3.40;1.73;;;;;;;;;;5075723;28;20195;-76
2022/06/12 18:58:39;;;;;;;1.60;1.50;;;;;;;;;;5087085;28;20319;-76
2022/06/12 19:01:43;;;;;;;7.07;1.90;;;;;;;;;;5085071;28;20215;-76
2022/06/12 19:04:47;;;;;;;3.77;1.60;;;;;;;;;;5084622;28;20198;-76
2022/06/12 19:07:52;;;;;;;2.23;1.73;;;;;;;;;;5076225;28;20639;-76
2022/06/12 19:10:56;;;;;;;3.13;1.60;;;;;;;;;;5076162;28;20214;-76
2022/06/12 19:14:00;;;;;;;4.10;1.80;;;;;;;;;;5054130;28;20183;-76
2022/06/12 19:17:04;;;;;;;2.63;1.40;;;;;;;;;;5075741;28;20175;-76
2022/06/12 19:20:11;;;;;;;3.80;1.50;;;;;;;;;;5065103;28;20523;-77
2022/06/12 19:23:15;;;;;;;1.57;1.40;;;;;;;;;;5095940;28;20168;-76
2022/06/12 19:26:19;;;;;;;3.53;1.87;;;;;;;;;;5074950;28;20191;-76
2022/06/12 19:29:24;;;;;;;1.73;1.60;;;;;;;;;;5064269;28;20183;-76
2022/06/12 19:32:28;;;;;;;1.73;1.40;;;;;;;;;;5075318;28;20223;-76
2022/06/12 19:35:32;;;;;;;2.20;1.83;;;;;;;;;;5094785;28;20194;-76